Time;durP1;ratioP1;P1;durP2;ratioP2;P2;SDS_P1;SDS_P2;PMS_P1;PMS_P2;Temp;Humidity;BMP_temperature;BMP_pressure;BME280_temperature;BME280_humidity;BME280_pressure;Samples;Min_cycle;Max_cycle;Signal;HPM_P1;HPM_P2
2022/03/16 00:00:22;;;;;;;13.87;9.50;;;;;;;6.94;nan;100150.09;4937278;29;20485;-75
2022/03/16 00:02:48;;;;;;;13.27;9.43;;;;;;;6.93;nan;100148.41;4938096;29;20221;-75
2022/03/16 00:05:14;;;;;;;13.77;9.40;;;;;;;6.86;nan;100142.59;4938755;29;20216;-75
2022/03/16 00:07:40;;;;;;;16.13;9.63;;;;;;;6.83;nan;100138.34;4935908;29;20225;-75
2022/03/16 00:10:09;;;;;;;10.27;7.68;;;;;;;6.79;nan;100139.38;4934450;29;20461;-75
2022/03/16 00:12:36;;;;;;;13.55;9.35;;;;;;;6.76;nan;100146.47;4919570;29;20947;-75
2022/03/16 00:15:02;;;;;;;11.52;9.45;;;;;;;6.75;nan;100144.75;4934985;29;20220;-75
2022/03/16 00:17:28;;;;;;;11.77;9.13;;;;;;;6.71;nan;100149.25;4938245;29;20683;-75
2022/03/16 00:19:53;;;;;;;15.23;9.10;;;;;;;6.66;nan;100138.16;4936117;29;20216;-74
2022/03/16 00:22:18;;;;;;;14.37;9.20;;;;;;;6.66;nan;100138.16;4935493;29;20229;-75
2022/03/16 00:24:44;;;;;;;16.83;10.30;;;;;;;6.66;nan;100143.38;4938281;29;20201;-74
2022/03/16 00:27:09;;;;;;;16.07;12.00;;;;;;;6.65;nan;100149.50;4933590;29;20232;-75
2022/03/16 00:29:35;;;;;;;17.40;12.73;;;;;;;6.63;nan;100146.09;4938951;29;20212;-75
2022/03/16 00:32:00;;;;;;;13.57;11.40;;;;;;;6.61;nan;100153.13;4935790;29;20499;-75
2022/03/16 00:34:26;;;;;;;15.77;10.77;;;;;;;6.60;nan;100159.28;4937401;29;20342;-75
2022/03/16 00:36:52;;;;;;;12.15;9.02;;;;;;;6.60;nan;100154.06;4934416;29;20251;-75
2022/03/16 00:39:17;;;;;;;18.17;14.27;;;;;;;6.59;nan;100157.59;4914826;29;20241;-75
2022/03/16 00:41:42;;;;;;;26.17;15.90;;;;;;;6.57;nan;100162.00;4920164;29;20209;-75
2022/03/16 00:44:08;;;;;;;18.93;13.17;;;;;;;6.53;nan;100160.41;4937449;29;20204;-75
2022/03/16 00:46:34;;;;;;;14.38;11.45;;;;;;;6.51;nan;100152.66;4918665;29;20210;-75
2022/03/16 00:49:01;;;;;;;20.48;12.07;;;;;;;6.49;nan;100151.00;4931688;29;20219;-75
2022/03/16 00:51:26;;;;;;;12.43;11.00;;;;;;;6.47;nan;100145.00;4936681;29;20212;-75
2022/03/16 00:53:53;;;;;;;16.83;9.93;;;;;;;6.46;nan;100145.91;4917406;29;20396;-75
2022/03/16 00:56:18;;;;;;;14.75;10.75;;;;;;;6.42;nan;100150.38;4918374;29;20231;-75
2022/03/16 00:58:43;;;;;;;12.10;9.30;;;;;;;6.41;nan;100154.75;4918817;29;20658;-75
2022/03/16 01:01:09;;;;;;;14.33;10.23;;;;;;;6.35;nan;100152.38;4916767;29;20544;-75
2022/03/16 01:03:35;;;;;;;10.63;9.63;;;;;;;6.27;nan;100153.59;4913797;29;20234;-75
2022/03/16 01:06:01;;;;;;;11.20;8.20;;;;;;;6.20;nan;100158.16;4916824;29;20236;-75
2022/03/16 01:08:27;;;;;;;10.90;8.90;;;;;;;6.15;nan;100158.31;4913334;29;20236;-75
2022/03/16 01:10:52;;;;;;;11.17;8.47;;;;;;;6.11;nan;100151.53;4916228;29;20217;-75
2022/03/16 01:13:18;;;;;;;9.43;8.40;;;;;;;6.08;nan;100149.03;4917071;29;20316;-75
2022/03/16 01:15:43;;;;;;;11.80;7.60;;;;;;;6.04;nan;100146.59;4915735;29;20726;-75
2022/03/16 01:18:09;;;;;;;8.50;6.80;;;;;;;6.01;nan;100152.75;4931515;28;20667;-75
2022/03/16 01:20:34;;;;;;;12.53;8.10;;;;;;;6.02;nan;100143.19;4915267;29;20208;-75
2022/03/16 01:23:00;;;;;;;11.40;8.67;;;;;;;6.04;nan;100147.44;4917317;29;20284;-75
2022/03/16 01:25:25;;;;;;;11.07;7.70;;;;;;;6.04;nan;100149.19;4918046;29;20206;-75
2022/03/16 01:27:51;;;;;;;9.67;8.40;;;;;;;6.03;nan;100153.56;4917257;29;20221;-74
2022/03/16 01:30:17;;;;;;;8.60;7.80;;;;;;;6.01;nan;100144.09;4917542;29;20548;-75
2022/03/16 01:32:43;;;;;;;13.68;10.18;;;;;;;6.05;nan;100143.94;4917017;29;20495;-75
2022/03/16 01:35:09;;;;;;;9.17;7.57;;;;;;;6.03;nan;100144.91;4912128;29;20217;-75
2022/03/16 01:37:35;;;;;;;8.65;7.18;;;;;;;6.00;nan;100139.78;4915905;29;20396;-75
2022/03/16 01:40:01;;;;;;;11.30;9.80;;;;;;;5.99;nan;100138.91;4917847;29;20210;-75
2022/03/16 01:42:26;;;;;;;11.38;8.30;;;;;;;6.00;nan;100139.78;4917813;29;20233;-75
2022/03/16 01:44:54;;;;;;;11.60;8.93;;;;;;;5.96;nan;100136.44;4914251;29;20308;-75
2022/03/16 01:47:21;;;;;;;15.13;9.18;;;;;;;5.94;nan;100140.84;4918346;29;20233;-75
2022/03/16 01:49:49;;;;;;;12.27;9.38;;;;;;;5.93;nan;100144.34;4916642;29;20574;-75
2022/03/16 01:52:18;;;;;;;11.75;9.60;;;;;;;5.93;nan;100144.34;4919369;29;20226;-75
2022/03/16 01:54:44;;;;;;;14.88;8.77;;;;;;;5.93;nan;100146.94;4915910;29;20852;-75
2022/03/16 01:57:10;;;;;;;13.87;10.37;;;;;;;5.95;nan;100148.63;4916534;29;20260;-75
2022/03/16 01:59:36;;;;;;;10.02;9.05;;;;;;;5.96;nan;100150.31;4914097;29;20316;-75
2022/03/16 02:02:03;;;;;;;20.43;16.73;;;;;;;6.01;nan;100147.53;4912241;29;20552;-75
2022/03/16 02:04:29;;;;;;;19.42;15.80;;;;;;;6.07;nan;100156.91;4915812;29;20485;-75
2022/03/16 02:06:54;;;;;;;22.63;17.20;;;;;;;6.11;nan;100154.13;4918892;29;20248;-75
2022/03/16 02:09:21;;;;;;;26.23;18.50;;;;;;;6.16;nan;100159.19;4918904;29;20210;-75
2022/03/16 02:11:47;;;;;;;27.10;19.85;;;;;;;6.20;nan;100153.78;4920374;29;20678;-75
2022/03/16 02:14:12;;;;;;;41.30;21.60;;;;;;;6.24;nan;100151.94;4917353;29;20247;-75
2022/03/16 02:16:38;;;;;;;35.40;22.50;;;;;;;6.29;nan;100167.41;4919839;29;20209;-75
2022/03/16 02:19:03;;;;;;;37.00;21.60;;;;;;;6.31;nan;100163.81;4919668;29;20910;-75
2022/03/16 02:21:30;;;;;;;45.30;22.40;;;;;;;6.33;nan;100164.63;4918917;29;20294;-75
2022/03/16 02:23:56;;;;;;;36.35;24.02;;;;;;;6.35;nan;100168.03;4919322;29;20243;-75
2022/03/16 02:26:27;;;;;;;38.47;23.00;;;;;;;6.38;nan;100161.84;4920929;29;20265;-75
2022/03/16 02:28:53;;;;;;;36.08;24.05;;;;;;;6.40;nan;100173.09;4920079;29;20233;-75
2022/03/16 02:31:19;;;;;;;35.33;21.92;;;;;;;6.41;nan;100172.19;4918269;29;20679;-75
2022/03/16 02:33:44;;;;;;;35.50;22.77;;;;;;;6.41;nan;100170.41;4918853;29;20301;-75
2022/03/16 02:36:10;;;;;;;28.10;22.00;;;;;;;6.44;nan;100177.28;4920557;29;20209;-75
2022/03/16 02:38:36;;;;;;;37.30;22.00;;;;;;;6.46;nan;100169.41;4919261;29;20213;-75
2022/03/16 02:41:02;;;;;;;33.58;23.90;;;;;;;6.47;nan;100169.31;4919757;29;20205;-75
2022/03/16 02:43:28;;;;;;;43.75;24.25;;;;;;;6.48;nan;100176.25;4919409;29;20249;-75
2022/03/16 02:45:56;;;;;;;61.27;23.67;;;;;;;6.48;nan;100162.34;4919668;29;20249;-75
2022/03/16 02:48:22;;;;;;;46.47;23.27;;;;;;;6.49;nan;100162.28;4918591;29;20276;-75
2022/03/16 02:50:49;;;;;;;59.43;28.20;;;;;;;6.50;nan;100160.53;4917582;29;20861;-75
2022/03/16 02:53:15;;;;;;;41.80;24.45;;;;;;;6.51;nan;100167.44;4920384;29;20316;-75
2022/03/16 02:55:42;;;;;;;49.47;26.70;;;;;;;6.52;nan;100166.56;4919043;29;20217;-75
2022/03/16 02:58:07;;;;;;;52.28;25.73;;;;;;;6.54;nan;100169.97;4918845;29;20217;-75
2022/03/16 03:00:34;;;;;;;51.23;24.80;;;;;;;6.55;nan;100161.22;4930116;29;20327;-75
2022/03/16 03:02:59;;;;;;;50.15;26.38;;;;;;;6.54;nan;100157.75;4935274;29;20522;-75
2022/03/16 03:05:25;;;;;;;80.13;26.90;;;;;;;6.57;nan;100168.06;4936399;29;20201;-75
2022/03/16 03:07:50;;;;;;;51.27;25.27;;;;;;;6.55;nan;100171.66;4937448;29;20240;-75
2022/03/16 03:10:16;;;;;;;41.00;24.30;;;;;;;6.54;nan;100170.81;4936579;29;20300;-75
2022/03/16 03:12:42;;;;;;;36.03;24.50;;;;;;;6.56;nan;100170.72;4939394;29;20476;-75
2022/03/16 03:15:11;;;;;;;49.17;28.37;;;;;;;6.59;nan;100168.03;4938077;29;21171;-75
2022/03/16 03:17:37;;;;;;;46.42;27.63;;;;;;;6.63;nan;100172.22;4935953;29;20197;-75
2022/03/16 03:20:04;;;;;;;54.78;27.70;;;;;;;6.63;nan;100182.66;4938456;29;20208;-75
2022/03/16 03:22:29;;;;;;;53.80;27.95;;;;;;;6.65;nan;100180.84;4937616;28;20237;-75
2022/03/16 03:24:55;;;;;;;53.97;31.00;;;;;;;6.67;nan;100180.75;4937472;29;20220;-75
2022/03/16 03:27:21;;;;;;;55.15;31.80;;;;;;;6.67;nan;100189.47;4935723;29;20233;-75
2022/03/16 03:29:47;;;;;;;98.22;41.70;;;;;;;6.70;nan;100191.06;4934482;28;20519;-75
2022/03/16 03:32:12;;;;;;;54.57;29.80;;;;;;;6.71;nan;100201.47;4938005;29;20229;-75
2022/03/16 03:34:39;;;;;;;69.40;31.80;;;;;;;6.73;nan;100202.28;4936269;29;20236;-75
2022/03/16 03:37:05;;;;;;;90.03;35.13;;;;;;;6.72;nan;100197.94;4936639;29;20205;-75
2022/03/16 03:39:31;;;;;;;52.00;29.52;;;;;;;6.71;nan;100196.25;4935855;29;20204;-75
2022/03/16 03:41:57;;;;;;;58.97;31.90;;;;;;;6.72;nan;100197.09;4933689;29;20587;-75
2022/03/16 03:44:22;;;;;;;58.07;34.37;;;;;;;6.73;nan;100194.44;4938256;29;20209;-75
2022/03/16 03:46:47;;;;;;;91.07;34.70;;;;;;;6.70;nan;100194.56;4936274;29;20205;-75
2022/03/16 03:49:13;;;;;;;64.03;34.47;;;;;;;6.70;nan;100197.19;4936278;29;20289;-75
2022/03/16 03:51:38;;;;;;;65.70;37.37;;;;;;;6.67;nan;100199.91;4937945;29;20303;-75
2022/03/16 03:54:04;;;;;;;69.73;36.17;;;;;;;6.70;nan;100201.53;4937057;29;20307;-75
2022/03/16 03:56:29;;;;;;;82.90;39.97;;;;;;;6.70;nan;100206.75;4934785;29;20339;-75
2022/03/16 03:58:54;;;;;;;77.67;37.77;;;;;;;6.71;nan;100204.09;4934439;29;20571;-75
2022/03/16 04:01:20;;;;;;;63.00;37.13;;;;;;;6.74;nan;100209.19;4935958;29;20503;-75
2022/03/16 04:03:45;;;;;;;68.20;36.90;;;;;;;6.76;nan;100214.38;4935280;29;20224;-75
2022/03/16 04:06:11;;;;;;;88.60;35.93;;;;;;;6.74;nan;100210.94;4937954;29;20263;-75
2022/03/16 04:08:37;;;;;;;61.30;35.17;;;;;;;6.73;nan;100204.03;4936782;29;20248;-75
2022/03/16 04:11:03;;;;;;;68.97;37.00;;;;;;;6.73;nan;100207.50;4921296;29;20460;-75
2022/03/16 04:13:29;;;;;;;77.53;39.73;;;;;;;6.73;nan;100201.44;4939206;29;20272;-75
2022/03/16 04:15:54;;;;;;;60.73;32.60;;;;;;;6.72;nan;100202.31;4938921;29;20220;-75
2022/03/16 04:18:20;;;;;;;63.80;33.30;;;;;;;6.69;nan;100198.06;4935187;29;20201;-75
2022/03/16 04:20:45;;;;;;;58.00;32.60;;;;;;;6.67;nan;100196.44;4935361;29;20240;-75
2022/03/16 04:23:11;;;;;;;60.13;36.23;;;;;;;6.65;nan;100196.50;4937667;29;20347;-75
2022/03/16 04:25:36;;;;;;;67.70;37.40;;;;;;;6.63;nan;100198.31;4938651;29;20209;-75
2022/03/16 04:28:02;;;;;;;73.93;41.17;;;;;;;6.60;nan;100196.66;4935771;29;20233;-75
2022/03/16 04:30:27;;;;;;;76.67;38.33;;;;;;;6.60;nan;100199.28;4935852;29;20700;-75
2022/03/16 04:32:53;;;;;;;64.57;35.40;;;;;;;6.62;nan;100207.06;4936982;29;20266;-75
2022/03/16 04:35:20;;;;;;;65.67;33.03;;;;;;;6.63;nan;100200.91;4934891;28;20240;-75
2022/03/16 04:37:46;;;;;;;81.63;33.05;;;;;;;6.64;nan;100205.22;4937639;29;20197;-75
2022/03/16 04:40:12;;;;;;;60.83;32.83;;;;;;;6.62;nan;100205.28;4935368;29;20234;-75
2022/03/16 04:42:37;;;;;;;66.97;35.50;;;;;;;6.61;nan;100210.56;4935345;29;20225;-75
2022/03/16 04:45:03;;;;;;;54.90;31.40;;;;;;;6.60;nan;100208.88;4935687;29;20228;-75
2022/03/16 04:47:29;;;;;;;60.43;33.60;;;;;;;6.58;nan;100211.53;4935049;29;20228;-75
2022/03/16 04:49:54;;;;;;;64.00;34.33;;;;;;;6.60;nan;100214.94;4936586;29;20315;-75
2022/03/16 04:52:19;;;;;;;57.30;29.67;;;;;;;6.61;nan;100215.78;4934763;29;20227;-75
2022/03/16 04:54:45;;;;;;;48.63;28.70;;;;;;;6.60;nan;100208.88;4937623;29;20997;-74
2022/03/16 04:57:10;;;;;;;51.70;27.90;;;;;;;6.58;nan;100216.75;4934966;29;21052;-74
2022/03/16 04:59:36;;;;;;;54.57;29.60;;;;;;;6.55;nan;100208.19;4933724;29;20855;-74
2022/03/16 05:02:01;;;;;;;69.20;38.80;;;;;;;6.52;nan;100205.69;4918214;29;20499;-74
2022/03/16 05:04:27;;;;;;;49.40;32.33;;;;;;;6.49;nan;100208.44;4934490;29;20259;-74
2022/03/16 05:06:52;;;;;;;62.60;33.17;;;;;;;6.46;nan;100209.38;4936607;29;20220;-74
2022/03/16 05:09:17;;;;;;;55.37;32.67;;;;;;;6.45;nan;100210.28;4935736;29;20201;-74
2022/03/16 05:11:44;;;;;;;50.33;29.23;;;;;;;6.44;nan;100211.19;4937484;29;20208;-74
2022/03/16 05:14:09;;;;;;;57.75;30.00;;;;;;;6.41;nan;100214.78;4937579;29;20796;-73
2022/03/16 05:16:35;;;;;;;53.47;29.17;;;;;;;6.42;nan;100215.63;4937886;29;20300;-74
2022/03/16 05:19:01;;;;;;;47.17;28.77;;;;;;;6.41;nan;100209.56;4920954;29;20216;-73
2022/03/16 05:21:27;;;;;;;45.33;28.70;;;;;;;6.39;nan;100203.53;4937631;29;20468;-74
2022/03/16 05:23:52;;;;;;;52.70;28.23;;;;;;;6.35;nan;100209.78;4937329;29;21009;-73
2022/03/16 05:26:17;;;;;;;47.70;29.43;;;;;;;6.35;nan;100207.19;4933899;29;20232;-74
2022/03/16 05:28:43;;;;;;;48.10;28.90;;;;;;;6.34;nan;100208.06;4934878;29;20261;-73
2022/03/16 05:31:09;;;;;;;41.63;26.53;;;;;;;6.34;nan;100209.81;4931581;29;20754;-73
2022/03/16 05:33:34;;;;;;;53.47;31.50;;;;;;;6.29;nan;100211.75;4932269;29;21346;-74
2022/03/16 05:36:01;;;;;;;54.55;29.00;;;;;;;6.26;nan;100204.88;4936573;29;20220;-74
2022/03/16 05:38:26;;;;;;;50.30;27.27;;;;;;;6.24;nan;100204.13;4936431;29;20204;-74
2022/03/16 05:40:51;;;;;;;49.33;28.10;;;;;;;6.24;nan;100206.72;4937190;29;20211;-73
2022/03/16 05:43:17;;;;;;;47.83;26.70;;;;;;;6.22;nan;100203.31;4936480;29;20764;-74
2022/03/16 05:45:42;;;;;;;49.60;28.23;;;;;;;6.23;nan;100205.00;4932854;29;20209;-73
2022/03/16 05:48:08;;;;;;;53.43;29.93;;;;;;;6.25;nan;100207.56;4935834;29;20255;-75
2022/03/16 05:50:33;;;;;;;42.77;26.67;;;;;;;6.25;nan;100207.56;4934356;29;20211;-74
2022/03/16 05:53:01;;;;;;;59.20;28.67;;;;;;;6.27;nan;100211.81;4935978;29;20213;-75
2022/03/16 05:55:27;;;;;;;49.78;25.95;;;;;;;6.26;nan;100215.31;4935392;29;20511;-74
2022/03/16 05:57:52;;;;;;;45.05;28.83;;;;;;;6.28;nan;100217.88;4935685;29;20205;-74
2022/03/16 06:00:19;;;;;;;52.07;27.37;;;;;;;6.30;nan;100221.28;4935159;29;20837;-74
2022/03/16 06:02:46;;;;;;;58.85;35.10;;;;;;;6.34;nan;100218.50;4932954;29;20491;-74
2022/03/16 06:05:13;;;;;;;50.30;26.73;;;;;;;6.34;nan;100223.72;4935286;29;20345;-74
2022/03/16 06:07:39;;;;;;;46.75;25.77;;;;;;;6.35;nan;100224.59;4935818;29;20235;-74
2022/03/16 06:10:09;;;;;;;45.27;25.70;;;;;;;6.36;nan;100223.69;4935323;29;20530;-74
2022/03/16 06:12:51;;;;;;;39.72;25.50;;;;;;;6.36;nan;100224.53;4936650;29;20276;-74
2022/03/16 06:15:16;;;;;;;40.88;24.45;;;;;;;6.37;nan;100234.06;4932964;29;21005;-74
2022/03/16 06:17:42;;;;;;;43.60;25.50;;;;;;;6.39;nan;100236.59;4933122;29;20216;-75
2022/03/16 06:20:08;;;;;;;54.30;27.03;;;;;;;6.39;nan;100240.06;4932638;29;20263;-74
2022/03/16 06:22:33;;;;;;;46.33;28.77;;;;;;;6.38;nan;100240.97;4936342;29;20288;-74
2022/03/16 06:24:58;;;;;;;43.97;28.50;;;;;;;6.37;nan;100249.72;4928788;29;20460;-73
2022/03/16 06:27:24;;;;;;;50.40;29.47;;;;;;;6.40;nan;100253.97;4928805;29;20221;-74
2022/03/16 06:29:49;;;;;;;57.70;33.43;;;;;;;6.43;nan;100252.09;4928847;29;20503;-74
2022/03/16 06:32:14;;;;;;;56.50;30.53;;;;;;;6.45;nan;100245.97;4925998;29;20295;-74
2022/03/16 06:34:40;;;;;;;54.30;30.17;;;;;;;6.46;nan;100250.28;4928747;29;20205;-73
2022/03/16 06:37:05;;;;;;;57.07;31.17;;;;;;;6.48;nan;100254.56;4929439;29;20209;-74
2022/03/16 06:39:31;;;;;;;54.33;34.50;;;;;;;6.50;nan;100264.91;4929715;29;20263;-74
2022/03/16 06:41:56;;;;;;;55.33;32.40;;;;;;;6.52;nan;100265.72;4929807;29;20319;-72
2022/03/16 06:44:21;;;;;;;57.03;34.27;;;;;;;6.49;nan;100263.22;4926746;29;20204;-74
2022/03/16 06:46:48;;;;;;;57.67;32.37;;;;;;;6.47;nan;100265.88;4928526;29;20224;-73
2022/03/16 06:49:14;;;;;;;61.55;32.80;;;;;;;6.45;nan;100266.84;4930267;29;20209;-73
2022/03/16 06:51:39;;;;;;;65.53;34.27;;;;;;;6.46;nan;100268.56;4929698;29;20264;-73
2022/03/16 06:54:04;;;;;;;64.33;32.57;;;;;;;6.49;nan;100271.06;4924884;29;20703;-73
2022/03/16 06:56:30;;;;;;;53.97;32.87;;;;;;;6.53;nan;100268.25;4930890;29;20316;-73
2022/03/16 06:58:56;;;;;;;53.80;32.07;;;;;;;6.56;nan;100285.56;4930133;28;20213;-73
2022/03/16 07:01:21;;;;;;;58.80;34.22;;;;;;;6.57;nan;100295.13;4934061;29;20217;-73
2022/03/16 07:03:47;;;;;;;56.90;32.77;;;;;;;6.57;nan;100297.72;4929158;29;20279;-73
2022/03/16 07:06:12;;;;;;;58.27;32.97;;;;;;;6.59;nan;100290.72;4930261;29;20212;-73
2022/03/16 07:08:38;;;;;;;56.67;32.37;;;;;;;6.62;nan;100290.59;4931507;29;20944;-74
2022/03/16 07:11:03;;;;;;;60.30;34.63;;;;;;;6.62;nan;100283.59;4931698;29;20213;-73
2022/03/16 07:13:29;;;;;;;65.00;36.10;;;;;;;6.63;nan;100282.69;4935870;29;20232;-74
2022/03/16 07:15:54;;;;;;;65.43;36.47;;;;;;;6.65;nan;100295.69;4932367;29;20201;-74
2022/03/16 07:18:20;;;;;;;68.17;35.90;;;;;;;6.68;nan;100289.50;4938366;29;20204;-72
2022/03/16 07:20:47;;;;;;;54.07;30.63;;;;;;;6.71;nan;100290.25;4936149;28;20212;-73
2022/03/16 07:23:19;;;;;;;61.15;36.17;;;;;;;6.77;nan;100295.22;4927599;28;20279;-73
2022/03/16 07:25:48;;;;;;;68.28;35.58;;;;;;;6.81;nan;100299.44;4932808;29;20211;-73
2022/03/16 07:28:15;;;;;;;55.95;34.80;;;;;;;6.83;nan;100292.41;4931494;29;20323;-74
2022/03/16 07:30:42;;;;;;;70.32;45.83;;;;;;;6.87;nan;100291.38;4913595;29;21636;-73
2022/03/16 07:33:08;;;;;;;64.78;35.90;;;;;;;6.86;nan;100292.28;4923842;29;20295;-74
2022/03/16 07:35:35;;;;;;;52.15;31.83;;;;;;;6.87;nan;100293.13;4931998;29;20217;-73
2022/03/16 07:38:02;;;;;;;55.83;28.42;;;;;;;6.90;nan;100290.41;4927375;29;20276;-74
2022/03/16 07:40:30;;;;;;;55.85;29.92;;;;;;;6.90;nan;100292.19;4935054;29;20213;-74
2022/03/16 07:42:57;;;;;;;47.92;30.77;;;;;;;6.93;nan;100286.84;4914573;29;20221;-73
2022/03/16 07:45:23;;;;;;;49.93;30.30;;;;;;;6.93;nan;100290.28;4930247;29;20335;-74
2022/03/16 07:47:50;;;;;;;46.90;28.25;;;;;;;6.94;nan;100285.91;4931885;29;20592;-74
2022/03/16 07:50:16;;;;;;;54.40;29.05;;;;;;;6.93;nan;100290.28;4914163;29;20205;-74
2022/03/16 07:52:43;;;;;;;53.95;31.55;;;;;;;6.91;nan;100280.81;4929612;29;20312;-72
2022/03/16 07:55:09;;;;;;;40.53;26.08;;;;;;;6.92;nan;100280.75;4929520;29;20365;-73
2022/03/16 07:57:36;;;;;;;59.08;31.63;;;;;;;6.90;nan;100277.34;4928389;29;20228;-73
2022/03/16 08:00:06;;;;;;;63.42;35.28;;;;;;;6.89;nan;100285.25;4933361;29;20240;-71
2022/03/16 08:02:32;;;;;;;67.03;38.13;;;;;;;6.94;nan;100278.06;4932181;29;20471;-73
2022/03/16 08:04:58;;;;;;;71.60;34.67;;;;;;;6.90;nan;100281.72;4929799;29;20223;-73
2022/03/16 08:07:27;;;;;;;54.50;33.25;;;;;;;6.87;nan;100275.69;4932123;29;20228;-73
2022/03/16 08:09:54;;;;;;;50.60;30.20;;;;;;;6.87;nan;100275.69;4929004;28;20927;-73
2022/03/16 08:12:19;;;;;;;48.72;28.23;;;;;;;6.88;nan;100266.09;4930088;29;20221;-73
2022/03/16 08:14:45;;;;;;;44.97;26.57;;;;;;;6.90;nan;100268.69;4931391;29;20240;-74
2022/03/16 08:17:10;;;;;;;44.93;29.50;;;;;;;6.90;nan;100266.06;4931878;29;20216;-73
2022/03/16 08:19:35;;;;;;;48.57;31.80;;;;;;;6.95;nan;100271.97;4932246;29;20817;-72
2022/03/16 08:22:01;;;;;;;53.30;30.77;;;;;;;6.97;nan;100267.53;4931072;29;20256;-73
2022/03/16 08:24:26;;;;;;;57.20;30.63;;;;;;;7.01;nan;100271.72;4929468;29;20217;-74
2022/03/16 08:26:52;;;;;;;64.93;34.80;;;;;;;7.05;nan;100268.94;4929711;29;20731;-75
2022/03/16 08:29:17;;;;;;;61.87;30.60;;;;;;;7.11;nan;100267.00;4923522;29;20256;-75
2022/03/16 08:31:43;;;;;;;54.57;32.07;;;;;;;7.14;nan;100272.09;4928908;29;20495;-73
2022/03/16 08:34:09;;;;;;;47.03;28.53;;;;;;;7.12;nan;100269.53;4930163;29;20551;-73
2022/03/16 08:36:34;;;;;;;46.63;26.90;;;;;;;7.16;nan;100272.91;4927760;29;20216;-75
2022/03/16 08:39:02;;;;;;;49.17;27.50;;;;;;;7.08;nan;100273.19;4931613;28;21521;-73
2022/03/16 08:41:28;;;;;;;50.08;27.23;;;;;;;7.02;nan;100282.13;4928055;29;20255;-74
2022/03/16 08:43:54;;;;;;;61.57;27.00;;;;;;;6.97;nan;100281.44;4928095;28;20599;-71
2022/03/16 08:46:19;;;;;;;45.27;26.40;;;;;;;6.93;nan;100276.38;4930159;29;20468;-71
2022/03/16 08:48:44;;;;;;;58.83;29.37;;;;;;;6.93;nan;100274.63;4928769;29;20669;-71
2022/03/16 08:51:10;;;;;;;59.40;30.37;;;;;;;6.99;nan;100270.91;4928259;29;20283;-72
2022/03/16 08:53:37;;;;;;;52.23;30.27;;;;;;;7.05;nan;100270.72;4929624;28;20228;-72
2022/03/16 08:56:03;;;;;;;58.63;29.98;;;;;;;7.12;nan;100279.16;4927888;29;20803;-72
2022/03/16 08:58:29;;;;;;;60.88;32.03;;;;;;;7.18;nan;100271.06;4930099;29;20197;-71
2022/03/16 09:00:54;;;;;;;48.60;28.27;;;;;;;7.26;nan;100267.25;4930200;28;20249;-74
2022/03/16 09:03:20;;;;;;;44.97;28.07;;;;;;;7.34;nan;100263.47;4929061;29;20236;-73
2022/03/16 09:05:46;;;;;;;51.57;28.60;;;;;;;7.39;nan;100249.31;4926203;29;20283;-74
2022/03/16 09:08:11;;;;;;;50.37;27.90;;;;;;;7.43;nan;100257.91;4930153;29;20351;-73
2022/03/16 09:10:38;;;;;;;46.17;25.40;;;;;;;7.44;nan;100264.81;4918444;28;20501;-74
2022/03/16 09:13:04;;;;;;;42.35;26.20;;;;;;;7.42;nan;100251.78;4906513;29;20292;-73
2022/03/16 09:15:30;;;;;;;47.38;26.13;;;;;;;7.44;nan;100255.19;4908675;29;20209;-73
2022/03/16 09:17:56;;;;;;;42.58;24.55;;;;;;;7.49;nan;100249.81;4912056;29;20212;-73
2022/03/16 09:20:21;;;;;;;39.00;22.50;;;;;;;7.53;nan;100248.75;4906751;29;20205;-74
2022/03/16 09:22:47;;;;;;;35.47;22.57;;;;;;;7.52;nan;100241.81;4909008;29;20352;-74
2022/03/16 09:25:12;;;;;;;34.17;22.53;;;;;;;7.54;nan;100246.09;4909833;29;20959;-74
2022/03/16 09:27:38;;;;;;;42.87;25.30;;;;;;;7.58;nan;100253.78;4909389;29;20317;-73
2022/03/16 09:30:05;;;;;;;35.47;21.07;;;;;;;7.59;nan;100248.53;4909363;29;20209;-74
2022/03/16 09:32:33;;;;;;;48.58;22.85;;;;;;;7.62;nan;100248.38;4907582;29;20243;-74
2022/03/16 09:34:59;;;;;;;49.28;27.08;;;;;;;7.66;nan;100244.72;4910459;29;20216;-73
2022/03/16 09:37:25;;;;;;;39.95;24.02;;;;;;;7.67;nan;100243.81;4909442;29;20204;-74
2022/03/16 09:39:51;;;;;;;46.23;24.80;;;;;;;7.68;nan;100252.50;4908787;29;20225;-74
2022/03/16 09:42:19;;;;;;;51.33;27.27;;;;;;;7.68;nan;100250.75;4909495;29;20225;-74
2022/03/16 09:44:46;;;;;;;48.70;28.85;;;;;;;7.70;nan;100245.47;4910409;29;20213;-73
2022/03/16 09:47:12;;;;;;;43.92;27.38;;;;;;;7.71;nan;100248.00;4909931;29;20679;-73
2022/03/16 09:49:38;;;;;;;45.88;25.55;;;;;;;7.77;nan;100244.28;4909510;29;20248;-73
2022/03/16 09:52:07;;;;;;;46.67;28.40;;;;;;;7.69;nan;100254.19;4907291;29;20560;-75
2022/03/16 09:54:33;;;;;;;45.10;26.73;;;;;;;7.70;nan;100264.59;4908140;29;20213;-72
2022/03/16 09:56:59;;;;;;;48.53;29.45;;;;;;;7.74;nan;100267.94;4911171;29;20215;-73
2022/03/16 09:59:24;;;;;;;53.73;31.73;;;;;;;7.74;nan;100262.72;4909621;29;20205;-74
2022/03/16 10:02:06;;;;;;;45.23;30.30;;;;;;;7.76;nan;100258.28;4909742;29;20531;-73
2022/03/16 10:04:34;;;;;;;51.33;32.20;;;;;;;7.81;nan;100258.09;4910703;29;20222;-73
2022/03/16 10:07:00;;;;;;;44.17;27.95;;;;;;;7.83;nan;100253.63;4911780;29;20221;-74
2022/03/16 10:15:18;;;;;;;42.10;22.88;;;;;;;7.92;nan;100250.63;4908585;29;20221;-74
2022/03/16 10:17:49;;;;;;;37.00;23.10;;;;;;;7.93;nan;100260.19;4909630;29;20213;-73
2022/03/16 10:20:18;;;;;;;36.28;23.35;;;;;;;7.91;nan;100254.16;4910809;29;20205;-74
2022/03/16 10:22:52;;;;;;;38.65;23.98;;;;;;;7.92;nan;100245.41;4906892;29;20280;-74
2022/03/16 10:25:18;;;;;;;45.72;23.80;;;;;;;7.91;nan;100255.03;4906219;29;20213;-74
2022/03/16 10:27:43;;;;;;;46.70;25.57;;;;;;;7.88;nan;100252.50;4907030;29;20225;-73
2022/03/16 10:30:09;;;;;;;45.93;26.27;;;;;;;7.83;nan;100240.53;4909583;29;20505;-74
2022/03/16 10:32:36;;;;;;;57.57;33.80;;;;;;;7.88;nan;100246.44;4907002;29;20495;-73
2022/03/16 10:35:05;;;;;;;46.65;28.63;;;;;;;7.92;nan;100253.25;4915058;29;20580;-74
2022/03/16 10:37:34;;;;;;;40.92;24.83;;;;;;;7.96;nan;100241.72;4910912;29;20201;-73
2022/03/16 10:39:59;;;;;;;39.58;24.30;;;;;;;8.02;nan;100236.25;4913764;29;20220;-74
2022/03/16 10:48:15;;;;;;;35.60;21.85;;;;;;;8.07;nan;100229.03;4911693;29;20229;-73
2022/03/16 10:50:45;;;;;;;43.30;26.38;;;;;;;8.08;nan;100230.75;4911498;29;20209;-74
2022/03/16 10:53:11;;;;;;;34.75;23.98;;;;;;;8.07;nan;100223.78;4909236;29;20235;-74
2022/03/16 10:55:38;;;;;;;33.88;21.35;;;;;;;8.10;nan;100226.31;4914647;29;20201;-74
2022/03/16 10:58:06;;;;;;;40.53;22.67;;;;;;;8.15;nan;100218.22;4915033;29;20219;-74
2022/03/16 11:00:35;;;;;;;38.97;24.60;;;;;;;8.17;nan;100212.03;4913203;29;20245;-73
2022/03/16 11:03:09;;;;;;;44.53;24.83;;;;;;;8.23;nan;100210.91;4913657;29;20304;-74
2022/03/16 11:05:38;;;;;;;39.00;22.50;;;;;;;8.27;nan;100212.47;4911784;29;20270;-74
2022/03/16 11:08:07;;;;;;;38.25;24.20;;;;;;;8.33;nan;100221.81;4893775;29;20232;-77
2022/03/16 11:10:41;;;;;;;38.78;21.40;;;;;;;8.38;nan;100209.38;4912677;29;20221;-75
2022/03/16 11:15:54;;;;;;;42.35;22.05;;;;;;;8.50;nan;100195.75;4906300;29;20216;-75
2022/03/16 11:18:20;;;;;;;39.30;21.23;;;;;;;8.55;nan;100199.00;4909216;29;20209;-74
2022/03/16 11:20:52;;;;;;;38.80;24.50;;;;;;;8.61;nan;100197.88;4569892;29;10000828;-74
2022/03/16 11:26:40;;;;;;;37.90;23.17;;;;;;;8.71;nan;100193.06;4910657;29;20210;-74
2022/03/16 11:29:23;;;;;;;42.13;24.55;;;;;;;8.75;nan;100195.50;4907882;29;20213;-75
2022/03/16 11:31:49;;;;;;;49.50;26.77;;;;;;;8.82;nan;100198.66;4912541;29;21283;-74
2022/03/16 11:34:22;;;;;;;36.10;24.17;;;;;;;8.84;nan;100197.66;4907845;29;20252;-74
2022/03/16 11:37:00;;;;;;;41.35;24.15;;;;;;;8.86;nan;100181.88;4911514;29;20221;-74
2022/03/16 11:39:25;;;;;;;43.70;23.58;;;;;;;8.91;nan;100174.66;4913228;29;20280;-74
2022/03/16 11:41:54;;;;;;;34.50;22.93;;;;;;;8.98;nan;100173.44;4909769;29;20292;-74
2022/03/16 11:44:25;;;;;;;33.35;22.23;;;;;;;9.09;nan;100168.50;4910057;29;20209;-75
2022/03/16 11:46:51;;;;;;;41.55;22.20;;;;;;;9.16;nan;100155.13;4909506;29;20238;-74